Airfield :







YOU CAN JOIN US ON...

 
LOGIN :

Register | Disclaimer

   EN    FR    IT 

 









Legend :    VFR   Marginal VFR   IFR   Intensive IFR   Very Intensive IFR
Visi :
Ceiling :
>= 8 km
>= 3000ft
5 to 8 km
1000 to 3000 ft
1500m to 5 km
500 to 1000 ft
800 to 1500m
200 to 500 ft
< 800m
< 200 ft
Symbols :   Thunderstorms  Fog  Heavy snow  Heavy precipitations  Wind > 20 kt






- Airport Elevation : 40 ft
- IATA code : YRF


CYCA - Cartwright

CURRENT METAR :
  • 131636Z AUTO 36009KT 7SM OVC003 05/04 A2988 RMK SLP122

EXPIRED METARs :
  • 131621Z AUTO 01010G16KT 1 3/4SM BR OVC003 05/04 A2988 RMK VIS VRB 3/4-3 SLP122
  • 131602Z AUTO 01012KT 6SM BR OVC003 05/04 A2988 RMK SLP121
  • 131536Z AUTO 36010G15KT 1 3/4SM BR OVC003 04/04 A2988 RMK VIS VRB 1-3 SLP121
  • 131529Z AUTO 36010G18KT 2 1/2SM BR OVC003 04/04 A2988 RMK VIS VRB 1 3/4-3 SLP121
  • 131522Z AUTO 01011G18KT 5SM BR OVC003 04/03 A2988 RMK SLP121
  • 131500Z AUTO 01012KT 9SM OVC003 04/03 A2988 RMK SLP121
  • 131452Z AUTO 01011G16KT 6SM BR OVC003 04/03 A2988 RMK SLP121
  • 131409Z AUTO 01011G16KT 1 3/4SM BR OVC002 04/03 A2988 RMK VIS VRB 3/4-3 SLP120
  • 131356Z AUTO 36011G16KT 3SM BR OVC002 04/04 A2988 RMK SLP120

TAF AMD TAF CYCA
Valid from the 13 at 16:00 until the 14 at 02:00 UTC


131617Z 1316/1402 02012KT 2SM BR OVC003
TEMPO 1316/1318 6SM BR SCT003 OVC080
FM131800 03010KT P6SM SCT006 BKN060
TEMPO 1318/1323 BKN006 OVC080
FM132300 VRB03KT P6SM BKN006
TEMPO 1323/1402 2SM BR BKN003 RMK FCST BASED ON AUTO OBS. NXT FCST BY 132000Z
CZQX FIR / North America



MET'MAP, your aeronautical weather chart ! - Copyright ORBIFLY December 2007 - Disclaimer

ORBIFLY MET'MAP TEAM :

Programming & Development : Alexandra Zaïnal
Concept & original design : Baudouin d'Aumeries
Assistance for programming : Marc-Olivier Méhu
Technical & hardware support : Manuel Goepfert

Contact : metmap@orbifly.com




SOURCES & CREDITS :

   NOAA